Wetterdaten: Woche 30.06.14 - 06.07.14 (KW27)
Datum Zeit Temp. Aussen +5cm Feuchte Auss Luftdruck Regen Sonnenschein Regendauer UV Solar Windben
30.06.2014 00:00 12,6 C 11,7 C 95 % 1011,8 hPa 0,0 l/m 0,00 h 0,00 h 0,0 UV-I 0 W/m 7,9 km/h (2 Bft)
30.06.2014 01:00 12,4 C 11,7 C 96 % 1011,9 hPa 0,0 l/m 0,00 h 0,00 h 0,0 UV-I 0 W/m 8,8 km/h (2 Bft)
30.06.2014 02:00 12,4 C 11,5 C 96 % 1012,0 hPa 0,0 l/m 0,00 h 0,00 h 0,0 UV-I 0 W/m 7,1 km/h (2 Bft)
30.06.2014 03:00 12,1 C 11,1 C 96 % 1012,1 hPa 0,0 l/m 0,00 h 0,00 h 0,0 UV-I 0 W/m 9,4 km/h (2 Bft)
30.06.2014 04:00 11,7 C 10,8 C 97 % 1012,4 hPa 0,0 l/m 0,00 h 0,00 h 0,0 UV-I 0 W/m 6,5 km/h (2 Bft)
30.06.2014 05:00 11,8 C 10,9 C 97 % 1012,8 hPa 0,0 l/m 0,00 h 0,00 h 0,0 UV-I 12 W/m 5,6 km/h (1 Bft)
30.06.2014 06:00 12,3 C 11,7 C 97 % 1013,3 hPa 0,0 l/m 0,03 h 0,00 h 0,0 UV-I 34 W/m 11,0 km/h (2 Bft)
30.06.2014 07:00 13,3 C 12,8 C 96 % 1013,5 hPa 0,0 l/m 0,53 h 0,00 h 0,0 UV-I 147 W/m 13,1 km/h (3 Bft)
30.06.2014 08:00 14,0 C 13,5 C 92 % 1014,2 hPa 0,0 l/m 0,13 h 0,00 h 0,0 UV-I 156 W/m 16,7 km/h (3 Bft)
30.06.2014 09:00 15,8 C 15,0 C 84 % 1014,7 hPa 0,0 l/m 0,63 h 0,00 h 1,2 UV-I 456 W/m 16,1 km/h (3 Bft)
30.06.2014 10:00 16,2 C 16,0 C 81 % 1015,1 hPa 0,0 l/m 0,13 h 0,17 h 1,6 UV-I 293 W/m 15,4 km/h (3 Bft)
30.06.2014 11:00 16,6 C 16,7 C 86 % 1015,5 hPa 0,2 l/m 0,43 h 0,30 h 2,9 UV-I 475 W/m 13,3 km/h (3 Bft)
30.06.2014 12:00 16,8 C 17,3 C 77 % 1015,8 hPa 0,0 l/m 0,30 h 0,27 h 2,0 UV-I 427 W/m 21,2 km/h (4 Bft)
30.06.2014 13:00 16,8 C 16,6 C 78 % 1015,8 hPa 0,0 l/m 0,47 h 0,00 h 2,3 UV-I 427 W/m 15,3 km/h (3 Bft)
30.06.2014 14:00 18,8 C 18,9 C 67 % 1016,0 hPa 0,0 l/m 0,40 h 0,00 h 2,8 UV-I 432 W/m 23,2 km/h (4 Bft)
30.06.2014 15:00 17,6 C 17,0 C 71 % 1016,4 hPa 0,0 l/m 0,08 h 0,23 h 1,5 UV-I 291 W/m 19,6 km/h (3 Bft)
30.06.2014 16:00 18,2 C 17,8 C 67 % 1016,4 hPa 0,0 l/m 0,52 h 0,00 h 2,1 UV-I 478 W/m 16,9 km/h (3 Bft)
30.06.2014 17:00 19,4 C 18,5 C 58 % 1016,7 hPa 0,0 l/m 0,80 h 0,00 h 0,8 UV-I 502 W/m 21,5 km/h (4 Bft)
30.06.2014 18:00 18,4 C 17,1 C 60 % 1016,7 hPa 0,0 l/m 0,80 h 0,00 h 0,5 UV-I 330 W/m 20,3 km/h (4 Bft)
30.06.2014 19:00 17,8 C 16,2 C 61 % 1016,7 hPa 0,0 l/m 1,00 h 0,00 h 0,0 UV-I 236 W/m 15,2 km/h (3 Bft)
30.06.2014 20:00 17,0 C 15,1 C 64 % 1017,0 hPa 0,0 l/m 0,60 h 0,00 h 0,0 UV-I 87 W/m 6,1 km/h (2 Bft)
30.06.2014 21:00 15,4 C 12,9 C 73 % 1017,2 hPa 0,0 l/m 0,17 h 0,00 h 0,0 UV-I 22 W/m 0,0 km/h (0 Bft)
30.06.2014 22:00 13,6 C 11,6 C 83 % 1017,7 hPa 0,0 l/m 0,00 h 0,00 h 0,0 UV-I 0 W/m 0,1 km/h (0 Bft)
30.06.2014 23:00 12,3 C 10,3 C 86 % 1018,1 hPa 0,0 l/m 0,00 h 0,00 h 0,0 UV-I 0 W/m 0,6 km/h (0 Bft)
01.07.2014 00:00 11,4 C 9,4 C 87 % 1018,3 hPa 0,0 l/m 0,00 h 0,00 h 0,0 UV-I 0 W/m 0,0 km/h (0 Bft)
01.07.2014 01:00 10,2 C 8,6 C 90 % 1018,3 hPa 0,0 l/m 0,00 h 0,00 h 0,0 UV-I 0 W/m 0,0 km/h (0 Bft)
01.07.2014 02:00 9,5 C 7,9 C 92 % 1018,3 hPa 0,0 l/m 0,00 h 0,00 h 0,0 UV-I 0 W/m 0,0 km/h (0 Bft)
01.07.2014 03:00 9,0 C 7,2 C 93 % 1018,3 hPa 0,0 l/m 0,00 h 0,00 h 0,0 UV-I 0 W/m 0,0 km/h (0 Bft)
01.07.2014 04:00 8,4 C 6,8 C 94 % 1018,3 hPa 0,0 l/m 0,00 h 0,00 h 0,0 UV-I 0 W/m 0,0 km/h (0 Bft)
01.07.2014 05:00 7,8 C 6,7 C 96 % 1018,5 hPa 0,0 l/m 0,37 h 0,00 h 0,0 UV-I 24 W/m 0,1 km/h (0 Bft)
01.07.2014 06:00 8,5 C 7,3 C 96 % 1018,9 hPa 0,0 l/m 0,97 h 0,00 h 0,0 UV-I 146 W/m 0,4 km/h (0 Bft)
01.07.2014 07:00 10,2 C 8,8 C 94 % 1019,1 hPa 0,0 l/m 1,00 h 0,00 h 0,0 UV-I 314 W/m 1,2 km/h (1 Bft)
01.07.2014 08:00 12,9 C 11,3 C 86 % 1019,2 hPa 0,0 l/m 1,00 h 0,00 h 0,7 UV-I 489 W/m 2,9 km/h (1 Bft)
01.07.2014 09:00 14,9 C 13,6 C 78 % 1019,4 hPa 0,0 l/m 0,67 h 0,00 h 1,2 UV-I 501 W/m 3,4 km/h (1 Bft)
01.07.2014 10:00 16,3 C 18,0 C 69 % 1019,4 hPa 0,0 l/m 0,83 h 0,00 h 2,4 UV-I 645 W/m 7,9 km/h (2 Bft)
01.07.2014 11:00 17,5 C 21,7 C 64 % 1019,3 hPa 0,0 l/m 0,70 h 0,00 h 3,3 UV-I 775 W/m 9,2 km/h (2 Bft)
01.07.2014 12:00 18,4 C 23,1 C 59 % 1019,2 hPa 0,0 l/m 0,73 h 0,00 h 4,1 UV-I 854 W/m 10,0 km/h (2 Bft)
01.07.2014 13:00 19,5 C 21,1 C 57 % 1019,0 hPa 0,0 l/m 0,87 h 0,00 h 5,0 UV-I 963 W/m 11,6 km/h (2 Bft)
01.07.2014 14:00 20,4 C 21,7 C 56 % 1018,8 hPa 0,0 l/m 0,80 h 0,00 h 4,5 UV-I 857 W/m 13,3 km/h (3 Bft)
01.07.2014 15:00 20,4 C 21,2 C 53 % 1018,5 hPa 0,0 l/m 1,00 h 0,00 h 3,7 UV-I 922 W/m 11,9 km/h (2 Bft)
01.07.2014 16:00 20,4 C 20,4 C 51 % 1018,4 hPa 0,0 l/m 0,63 h 0,00 h 2,0 UV-I 591 W/m 8,0 km/h (2 Bft)
01.07.2014 17:00 20,4 C 19,9 C 53 % 1018,3 hPa 0,0 l/m 0,53 h 0,00 h 0,9 UV-I 436 W/m 12,3 km/h (3 Bft)
01.07.2014 18:00 19,5 C 18,1 C 55 % 1018,2 hPa 0,0 l/m 0,67 h 0,00 h 0,5 UV-I 344 W/m 12,3 km/h (3 Bft)
01.07.2014 19:00 18,9 C 17,7 C 60 % 1018,5 hPa 0,0 l/m 0,77 h 0,00 h 0,0 UV-I 242 W/m 14,7 km/h (3 Bft)
01.07.2014 20:00 18,3 C 16,9 C 64 % 1018,7 hPa 0,0 l/m 0,60 h 0,00 h 0,0 UV-I 95 W/m 12,6 km/h (3 Bft)
01.07.2014 21:00 17,0 C 15,5 C 68 % 1019,0 hPa 0,0 l/m 0,20 h 0,00 h 0,0 UV-I 19 W/m 4,6 km/h (1 Bft)
01.07.2014 22:00 15,6 C 14,1 C 74 % 1019,6 hPa 0,0 l/m 0,00 h 0,00 h 0,0 UV-I 0 W/m 5,6 km/h (1 Bft)
01.07.2014 23:00 14,3 C 12,9 C 79 % 1020,1 hPa 0,0 l/m 0,00 h 0,00 h 0,0 UV-I 0 W/m 3,8 km/h (1 Bft)
02.07.2014 00:00 12,8 C 11,1 C 85 % 1020,3 hPa 0,0 l/m 0,00 h 0,00 h 0,0 UV-I 0 W/m 0,1 km/h (0 Bft)
02.07.2014 01:00 11,7 C 9,8 C 89 % 1020,3 hPa 0,0 l/m 0,00 h 0,00 h 0,0 UV-I 0 W/m 0,0 km/h (0 Bft)
02.07.2014 02:00 10,9 C 9,2 C 92 % 1020,2 hPa 0,0 l/m 0,00 h 0,00 h 0,0 UV-I 0 W/m 0,0 km/h (0 Bft)
02.07.2014 03:00 10,0 C 8,5 C 94 % 1020,1 hPa 0,0 l/m 0,00 h 0,00 h 0,0 UV-I 0 W/m 0,0 km/h (0 Bft)
02.07.2014 04:00 9,4 C 8,0 C 95 % 1020,1 hPa 0,0 l/m 0,00 h 0,00 h 0,0 UV-I 0 W/m 0,0 km/h (0 Bft)
02.07.2014 05:00 8,9 C 7,7 C 95 % 1020,5 hPa 0,0 l/m 0,37 h 0,00 h 0,0 UV-I 18 W/m 0,0 km/h (0 Bft)
02.07.2014 06:00 9,3 C 8,5 C 96 % 1020,9 hPa 0,0 l/m 0,30 h 0,00 h 0,0 UV-I 63 W/m 0,1 km/h (0 Bft)
02.07.2014 07:00 10,7 C 10,3 C 95 % 1021,3 hPa 0,0 l/m 0,73 h 0,00 h 0,0 UV-I 190 W/m 0,2 km/h (0 Bft)
02.07.2014 08:00 13,3 C 12,0 C 89 % 1021,7 hPa 0,0 l/m 1,00 h 0,00 h 0,7 UV-I 419 W/m 0,6 km/h (0 Bft)
02.07.2014 09:00 16,0 C 14,5 C 77 % 1021,7 hPa 0,0 l/m 1,00 h 0,00 h 1,3 UV-I 572 W/m 5,9 km/h (2 Bft)
02.07.2014 10:00 17,7 C 19,6 C 69 % 1021,9 hPa 0,0 l/m 1,00 h 0,00 h 2,5 UV-I 714 W/m 10,4 km/h (2 Bft)
02.07.2014 11:00 18,9 C 23,2 C 62 % 1022,1 hPa 0,0 l/m 0,77 h 0,00 h 3,3 UV-I 668 W/m 9,7 km/h (2 Bft)
02.07.2014 12:00 19,5 C 23,3 C 57 % 1022,2 hPa 0,0 l/m 0,50 h 0,00 h 3,3 UV-I 598 W/m 11,8 km/h (2 Bft)
02.07.2014 13:00 20,1 C 21,8 C 55 % 1022,0 hPa 0,0 l/m 0,70 h 0,00 h 4,3 UV-I 782 W/m 10,1 km/h (2 Bft)
02.07.2014 14:00 20,8 C 22,5 C 55 % 1021,8 hPa 0,0 l/m 0,90 h 0,00 h 4,5 UV-I 826 W/m 11,4 km/h (2 Bft)
02.07.2014 15:00 21,4 C 22,4 C 54 % 1021,8 hPa 0,0 l/m 0,90 h 0,00 h 3,8 UV-I 765 W/m 11,9 km/h (2 Bft)
02.07.2014 16:00 21,5 C 20,8 C 55 % 1021,9 hPa 0,0 l/m 0,90 h 0,00 h 2,5 UV-I 721 W/m 12,3 km/h (3 Bft)
02.07.2014 17:00 21,4 C 20,1 C 55 % 1021,9 hPa 0,0 l/m 0,77 h 0,00 h 0,9 UV-I 562 W/m 12,3 km/h (3 Bft)
02.07.2014 18:00 21,0 C 19,3 C 54 % 1021,8 hPa 0,0 l/m 0,97 h 0,00 h 0,5 UV-I 431 W/m 11,4 km/h (2 Bft)
02.07.2014 19:00 20,6 C 18,6 C 56 % 1021,8 hPa 0,0 l/m 0,97 h 0,00 h 0,0 UV-I 237 W/m 10,2 km/h (2 Bft)
02.07.2014 20:00 20,0 C 17,7 C 56 % 1022,0 hPa 0,0 l/m 0,30 h 0,00 h 0,0 UV-I 78 W/m 2,9 km/h (1 Bft)
02.07.2014 21:00 18,2 C 15,1 C 66 % 1022,2 hPa 0,0 l/m 0,07 h 0,00 h 0,0 UV-I 20 W/m 0,0 km/h (0 Bft)
02.07.2014 22:00 16,4 C 13,7 C 77 % 1022,5 hPa 0,0 l/m 0,00 h 0,00 h 0,0 UV-I 0 W/m 0,0 km/h (0 Bft)
02.07.2014 23:00 14,6 C 12,5 C 83 % 1022,7 hPa 0,0 l/m 0,00 h 0,00 h 0,0 UV-I 0 W/m 0,0 km/h (0 Bft)
03.07.2014 00:00 13,6 C 11,6 C 86 % 1022,8 hPa 0,0 l/m 0,00 h 0,00 h 0,0 UV-I 0 W/m 0,0 km/h (0 Bft)
03.07.2014 01:00 12,8 C 11,1 C 92 % 1022,8 hPa 0,0 l/m 0,00 h 0,00 h 0,0 UV-I 0 W/m 0,0 km/h (0 Bft)
03.07.2014 02:00 12,0 C 10,5 C 94 % 1022,8 hPa 0,0 l/m 0,00 h 0,00 h 0,0 UV-I 0 W/m 0,0 km/h (0 Bft)
03.07.2014 03:00 11,4 C 9,9 C 95 % 1022,8 hPa 0,0 l/m 0,00 h 0,00 h 0,0 UV-I 0 W/m 0,1 km/h (0 Bft)
03.07.2014 04:00 11,0 C 9,4 C 95 % 1022,5 hPa 0,0 l/m 0,00 h 0,00 h 0,0 UV-I 0 W/m 0,1 km/h (0 Bft)
03.07.2014 05:00 10,7 C 9,1 C 94 % 1022,6 hPa 0,0 l/m 0,37 h 0,00 h 0,0 UV-I 20 W/m 0,1 km/h (0 Bft)
03.07.2014 06:00 11,1 C 9,8 C 94 % 1022,4 hPa 0,0 l/m 0,97 h 0,00 h 0,0 UV-I 130 W/m 2,3 km/h (1 Bft)
03.07.2014 07:00 12,7 C 11,4 C 90 % 1022,2 hPa 0,0 l/m 1,00 h 0,00 h 0,0 UV-I 300 W/m 13,1 km/h (3 Bft)
03.07.2014 08:00 15,4 C 13,6 C 82 % 1022,1 hPa 0,0 l/m 1,00 h 0,00 h 0,6 UV-I 388 W/m 10,8 km/h (2 Bft)
03.07.2014 09:00 19,1 C 16,3 C 72 % 1022,2 hPa 0,0 l/m 1,00 h 0,00 h 1,7 UV-I 641 W/m 7,8 km/h (2 Bft)
03.07.2014 10:00 22,2 C 23,5 C 60 % 1022,3 hPa 0,0 l/m 1,00 h 0,00 h 3,0 UV-I 775 W/m 9,8 km/h (2 Bft)
03.07.2014 11:00 23,4 C 27,5 C 53 % 1022,3 hPa 0,0 l/m 1,00 h 0,00 h 4,3 UV-I 893 W/m 14,3 km/h (3 Bft)
03.07.2014 12:00 24,6 C 29,0 C 51 % 1022,1 hPa 0,0 l/m 0,90 h 0,00 h 4,7 UV-I 899 W/m 16,9 km/h (3 Bft)
03.07.2014 13:00 25,6 C 26,8 C 47 % 1021,9 hPa 0,0 l/m 1,00 h 0,00 h 5,5 UV-I 979 W/m 18,8 km/h (3 Bft)
03.07.2014 14:00 26,5 C 26,9 C 45 % 1021,3 hPa 0,0 l/m 1,00 h 0,00 h 5,0 UV-I 925 W/m 21,6 km/h (4 Bft)
03.07.2014 15:00 26,8 C 26,6 C 43 % 1020,8 hPa 0,0 l/m 1,00 h 0,00 h 4,1 UV-I 850 W/m 21,8 km/h (4 Bft)
03.07.2014 16:00 27,3 C 25,8 C 42 % 1020,1 hPa 0,0 l/m 1,00 h 0,00 h 3,0 UV-I 739 W/m 19,9 km/h (4 Bft)
03.07.2014 17:00 26,9 C 24,8 C 43 % 1019,5 hPa 0,0 l/m 1,00 h 0,00 h 1,0 UV-I 589 W/m 17,0 km/h (3 Bft)
03.07.2014 18:00 26,2 C 23,4 C 47 % 1018,9 hPa 0,0 l/m 0,97 h 0,00 h 0,6 UV-I 425 W/m 15,5 km/h (3 Bft)
03.07.2014 19:00 25,6 C 22,6 C 49 % 1018,5 hPa 0,0 l/m 1,00 h 0,00 h 0,0 UV-I 261 W/m 14,4 km/h (3 Bft)
03.07.2014 20:00 24,8 C 21,3 C 52 % 1018,1 hPa 0,0 l/m 0,67 h 0,00 h 0,0 UV-I 99 W/m 6,1 km/h (2 Bft)
03.07.2014 21:00 23,0 C 18,7 C 61 % 1017,8 hPa 0,0 l/m 0,03 h 0,00 h 0,0 UV-I 16 W/m 0,3 km/h (0 Bft)
03.07.2014 22:00 20,1 C 16,8 C 74 % 1017,9 hPa 0,0 l/m 0,00 h 0,00 h 0,0 UV-I 0 W/m 0,4 km/h (0 Bft)
03.07.2014 23:00 18,5 C 15,7 C 82 % 1017,9 hPa 0,0 l/m 0,00 h 0,00 h 0,0 UV-I 0 W/m 0,7 km/h (0 Bft)
04.07.2014 00:00 17,6 C 14,8 C 85 % 1017,8 hPa 0,0 l/m 0,00 h 0,00 h 0,0 UV-I 0 W/m 0,1 km/h (0 Bft)
04.07.2014 01:00 16,7 C 14,1 C 85 % 1017,5 hPa 0,0 l/m 0,00 h 0,00 h 0,0 UV-I 0 W/m 1,8 km/h (1 Bft)
04.07.2014 02:00 15,7 C 13,4 C 89 % 1017,0 hPa 0,0 l/m 0,00 h 0,00 h 0,0 UV-I 0 W/m 0,3 km/h (0 Bft)
04.07.2014 03:00 15,3 C 12,9 C 90 % 1016,4 hPa 0,0 l/m 0,00 h 0,00 h 0,0 UV-I 0 W/m 0,2 km/h (0 Bft)
04.07.2014 04:00 14,7 C 12,6 C 90 % 1016,0 hPa 0,0 l/m 0,00 h 0,00 h 0,0 UV-I 0 W/m 0,4 km/h (0 Bft)
04.07.2014 05:00 14,6 C 12,5 C 90 % 1015,6 hPa 0,0 l/m 0,33 h 0,00 h 0,0 UV-I 17 W/m 0,6 km/h (0 Bft)
04.07.2014 06:00 14,7 C 13,2 C 89 % 1015,1 hPa 0,0 l/m 0,97 h 0,00 h 0,0 UV-I 110 W/m 8,0 km/h (2 Bft)
04.07.2014 07:00 16,1 C 14,4 C 87 % 1014,6 hPa 0,0 l/m 1,00 h 0,00 h 0,0 UV-I 252 W/m 10,5 km/h (2 Bft)
04.07.2014 08:00 18,8 C 16,4 C 80 % 1014,1 hPa 0,0 l/m 1,00 h 0,00 h 0,7 UV-I 398 W/m 11,5 km/h (2 Bft)
04.07.2014 09:00 22,3 C 19,4 C 70 % 1013,6 hPa 0,0 l/m 1,00 h 0,00 h 1,5 UV-I 533 W/m 9,8 km/h (2 Bft)
04.07.2014 10:00 24,9 C 26,0 C 65 % 1012,8 hPa 0,0 l/m 1,00 h 0,00 h 2,7 UV-I 650 W/m 10,2 km/h (2 Bft)
04.07.2014 11:00 27,7 C 31,3 C 54 % 1012,0 hPa 0,0 l/m 1,00 h 0,00 h 3,9 UV-I 749 W/m 13,9 km/h (3 Bft)
04.07.2014 12:00 29,5 C 33,3 C 45 % 1011,0 hPa 0,0 l/m 0,93 h 0,00 h 4,5 UV-I 811 W/m 19,2 km/h (3 Bft)
04.07.2014 13:00 29,8 C 29,9 C 44 % 1010,1 hPa 0,0 l/m 0,90 h 0,00 h 4,7 UV-I 749 W/m 17,8 km/h (3 Bft)
04.07.2014 14:00 30,5 C 30,7 C 44 % 1009,3 hPa 0,0 l/m 0,83 h 0,00 h 3,9 UV-I 699 W/m 18,3 km/h (3 Bft)
04.07.2014 15:00 28,3 C 26,3 C 50 % 1008,9 hPa 0,0 l/m 0,00 h 0,10 h 1,1 UV-I 129 W/m 9,7 km/h (2 Bft)
04.07.2014 16:00 26,9 C 24,5 C 55 % 1008,8 hPa 0,0 l/m 0,00 h 0,00 h 0,0 UV-I 88 W/m 13,1 km/h (3 Bft)
04.07.2014 17:00 26,9 C 25,1 C 57 % 1007,9 hPa 0,0 l/m 0,30 h 0,00 h 0,8 UV-I 240 W/m 1,9 km/h (1 Bft)
04.07.2014 18:00 27,8 C 25,7 C 54 % 1006,7 hPa 0,0 l/m 0,33 h 0,00 h 0,6 UV-I 261 W/m 5,3 km/h (1 Bft)
04.07.2014 19:00 26,8 C 24,6 C 58 % 1006,6 hPa 0,0 l/m 0,07 h 0,00 h 0,0 UV-I 100 W/m 0,9 km/h (0 Bft)
04.07.2014 20:00 25,4 C 22,7 C 65 % 1006,7 hPa 0,0 l/m 0,00 h 0,10 h 0,0 UV-I 47 W/m 1,0 km/h (0 Bft)
04.07.2014 21:00 23,9 C 21,2 C 71 % 1006,5 hPa 0,0 l/m 0,57 h 0,00 h 0,0 UV-I 31 W/m 0,4 km/h (0 Bft)
04.07.2014 22:00 22,6 C 20,1 C 78 % 1006,6 hPa 0,0 l/m 0,00 h 0,00 h 0,0 UV-I 0 W/m 0,3 km/h (0 Bft)
04.07.2014 23:00 22,5 C 20,0 C 75 % 1006,6 hPa 0,0 l/m 0,00 h 0,00 h 0,0 UV-I 0 W/m 3,5 km/h (1 Bft)
05.07.2014 00:00 22,3 C 19,5 C 74 % 1006,6 hPa 0,0 l/m 0,00 h 0,00 h 0,0 UV-I 0 W/m 1,6 km/h (1 Bft)
05.07.2014 01:00 22,1 C 19,4 C 73 % 1006,2 hPa 0,0 l/m 0,00 h 0,00 h 0,0 UV-I 0 W/m 7,1 km/h (2 Bft)
05.07.2014 02:00 21,5 C 19,0 C 74 % 1006,0 hPa 0,0 l/m 0,00 h 0,00 h 0,0 UV-I 0 W/m 9,3 km/h (2 Bft)
05.07.2014 03:00 21,2 C 18,9 C 75 % 1005,8 hPa 0,0 l/m 0,00 h 0,13 h 0,0 UV-I 0 W/m 9,6 km/h (2 Bft)
05.07.2014 04:00 20,9 C 18,9 C 77 % 1005,5 hPa 0,0 l/m 0,00 h 0,00 h 0,0 UV-I 0 W/m 10,8 km/h (2 Bft)
05.07.2014 05:00 20,2 C 18,3 C 81 % 1005,3 hPa 0,0 l/m 0,00 h 0,00 h 0,0 UV-I 10 W/m 6,9 km/h (2 Bft)
05.07.2014 06:00 20,1 C 18,5 C 82 % 1005,2 hPa 0,0 l/m 0,00 h 0,00 h 0,0 UV-I 34 W/m 10,0 km/h (2 Bft)
05.07.2014 07:00 20,4 C 19,3 C 82 % 1005,0 hPa 0,0 l/m 0,00 h 0,00 h 0,0 UV-I 84 W/m 11,9 km/h (2 Bft)
05.07.2014 08:00 21,0 C 19,9 C 80 % 1005,0 hPa 0,0 l/m 0,13 h 0,00 h 0,0 UV-I 160 W/m 17,6 km/h (3 Bft)
05.07.2014 09:00 21,9 C 21,3 C 78 % 1005,2 hPa 0,0 l/m 0,27 h 0,00 h 0,9 UV-I 267 W/m 19,6 km/h (3 Bft)
05.07.2014 10:00 22,3 C 21,8 C 74 % 1005,4 hPa 0,0 l/m 0,27 h 0,00 h 1,4 UV-I 291 W/m 26,2 km/h (4 Bft)
05.07.2014 11:00 20,2 C 18,6 C 85 % 1006,0 hPa 1,0 l/m 0,03 h 0,87 h 0,8 UV-I 170 W/m 23,9 km/h (4 Bft)
05.07.2014 12:00 19,4 C 18,2 C 95 % 1006,0 hPa 0,6 l/m 0,00 h 0,97 h 1,2 UV-I 185 W/m 12,7 km/h (3 Bft)
05.07.2014 13:00 19,3 C 17,9 C 94 % 1006,2 hPa 0,2 l/m 0,00 h 0,93 h 1,8 UV-I 196 W/m 21,3 km/h (4 Bft)
05.07.2014 14:00 20,7 C 19,6 C 89 % 1006,2 hPa 0,0 l/m 0,13 h 0,20 h 2,0 UV-I 302 W/m 18,3 km/h (3 Bft)
05.07.2014 15:00 20,6 C 19,1 C 89 % 1006,3 hPa 0,0 l/m 0,03 h 0,17 h 1,5 UV-I 256 W/m 22,7 km/h (4 Bft)
05.07.2014 16:00 21,8 C 20,8 C 84 % 1006,3 hPa 0,0 l/m 0,40 h 0,00 h 1,5 UV-I 280 W/m 20,7 km/h (4 Bft)
05.07.2014 17:00 22,2 C 21,1 C 81 % 1006,4 hPa 0,0 l/m 0,43 h 0,00 h 1,0 UV-I 369 W/m 23,6 km/h (4 Bft)
05.07.2014 18:00 22,4 C 20,7 C 80 % 1006,3 hPa 1,0 l/m 0,03 h 0,23 h 0,5 UV-I 116 W/m 20,7 km/h (4 Bft)
05.07.2014 19:00 19,7 C 18,1 C 94 % 1006,8 hPa 1,2 l/m 0,30 h 0,40 h 0,0 UV-I 130 W/m 16,3 km/h (3 Bft)
05.07.2014 20:00 19,4 C 17,9 C 95 % 1007,3 hPa 0,0 l/m 0,03 h 0,07 h 0,0 UV-I 60 W/m 13,2 km/h (3 Bft)
05.07.2014 21:00 19,2 C 17,3 C 95 % 1007,7 hPa 0,0 l/m 0,00 h 0,03 h 0,0 UV-I 13 W/m 11,0 km/h (2 Bft)
05.07.2014 22:00 19,3 C 17,4 C 95 % 1008,3 hPa 0,0 l/m 0,00 h 0,23 h 0,0 UV-I 0 W/m 15,0 km/h (3 Bft)
05.07.2014 23:00 19,1 C 17,2 C 96 % 1008,7 hPa 1,6 l/m 0,00 h 0,83 h 0,0 UV-I 0 W/m 10,0 km/h (2 Bft)
06.07.2014 00:00 18,6 C 17,2 C 98 % 1008,5 hPa 0,0 l/m 0,00 h 0,00 h 0,0 UV-I 0 W/m 5,3 km/h (1 Bft)
06.07.2014 01:00 18,4 C 17,1 C 98 % 1008,3 hPa 0,0 l/m 0,00 h 0,00 h 0,0 UV-I 0 W/m 6,7 km/h (2 Bft)
06.07.2014 02:00 18,3 C 16,7 C 98 % 1008,1 hPa 0,0 l/m 0,00 h 0,00 h 0,0 UV-I 0 W/m 10,7 km/h (2 Bft)
06.07.2014 03:00 17,8 C 16,1 C 98 % 1007,8 hPa 0,0 l/m 0,00 h 0,00 h 0,0 UV-I 0 W/m 12,4 km/h (3 Bft)
06.07.2014 04:00 17,6 C 16,0 C 98 % 1007,7 hPa 0,0 l/m 0,00 h 0,00 h 0,0 UV-I 0 W/m 14,4 km/h (3 Bft)
06.07.2014 05:00 17,3 C 15,6 C 97 % 1007,6 hPa 0,0 l/m 0,33 h 0,00 h 0,0 UV-I 15 W/m 7,8 km/h (2 Bft)
06.07.2014 06:00 17,7 C 16,3 C 96 % 1007,6 hPa 0,0 l/m 0,50 h 0,00 h 0,0 UV-I 74 W/m 12,7 km/h (3 Bft)
06.07.2014 07:00 19,0 C 17,4 C 94 % 1007,6 hPa 0,0 l/m 0,70 h 0,00 h 0,0 UV-I 239 W/m 15,9 km/h (3 Bft)
06.07.2014 08:00 20,3 C 18,5 C 87 % 1007,8 hPa 0,0 l/m 0,37 h 0,00 h 0,5 UV-I 196 W/m 19,4 km/h (3 Bft)
06.07.2014 09:00 21,7 C 19,4 C 82 % 1007,8 hPa 0,2 l/m 0,67 h 0,00 h 1,7 UV-I 470 W/m 20,4 km/h (4 Bft)
06.07.2014 10:00 23,5 C 23,6 C 75 % 1007,6 hPa 0,0 l/m 0,90 h 0,00 h 3,1 UV-I 554 W/m 25,8 km/h (4 Bft)
06.07.2014 11:00 24,5 C 25,0 C 71 % 1007,2 hPa 0,0 l/m 0,40 h 0,00 h 2,8 UV-I 478 W/m 26,4 km/h (4 Bft)
06.07.2014 12:00 25,4 C 25,5 C 68 % 1007,1 hPa 0,0 l/m 0,37 h 0,00 h 3,7 UV-I 428 W/m 29,7 km/h (5 Bft)
06.07.2014 13:00 25,4 C 24,0 C 68 % 1006,8 hPa 0,4 l/m 0,10 h 0,13 h 2,0 UV-I 272 W/m 23,0 km/h (4 Bft)
06.07.2014 14:00 24,5 C 21,4 C 79 % 1006,6 hPa 0,0 l/m 0,40 h 0,30 h 2,8 UV-I 342 W/m 18,2 km/h (3 Bft)
06.07.2014 15:00 21,2 C 18,7 C 89 % 1006,8 hPa 7,0 l/m 0,00 h 0,97 h 0,9 UV-I 116 W/m 22,7 km/h (4 Bft)
06.07.2014 16:00 21,1 C 19,9 C 94 % 1006,0 hPa 0,0 l/m 0,00 h 0,33 h 0,9 UV-I 190 W/m 5,0 km/h (1 Bft)
06.07.2014 17:00 22,0 C 20,6 C 91 % 1005,3 hPa 0,0 l/m 0,10 h 0,00 h 0,6 UV-I 201 W/m 8,9 km/h (2 Bft)
06.07.2014 18:00 23,0 C 20,7 C 86 % 1004,3 hPa 0,0 l/m 0,43 h 0,00 h 0,5 UV-I 232 W/m 10,8 km/h (2 Bft)
06.07.2014 19:00 22,8 C 20,1 C 86 % 1004,5 hPa 0,0 l/m 0,00 h 0,27 h 0,0 UV-I 30 W/m 22,8 km/h (4 Bft)
06.07.2014 20:00 20,2 C 18,4 C 92 % 1006,3 hPa 0,2 l/m 0,00 h 0,67 h 0,0 UV-I 36 W/m 23,3 km/h (4 Bft)
06.07.2014 21:00 18,3 C 16,8 C 96 % 1007,1 hPa 0,6 l/m 0,00 h 0,77 h 0,0 UV-I 6 W/m 17,6 km/h (3 Bft)
06.07.2014 22:00 16,6 C 15,4 C 96 % 1009,1 hPa 0,2 l/m 0,00 h 0,37 h 0,0 UV-I 0 W/m 19,2 km/h (3 Bft)
06.07.2014 23:00 15,9 C 14,8 C 95 % 1010,8 hPa 0,0 l/m 0,00 h 0,10 h 0,0 UV-I 0 W/m 9,3 km/h (2 Bft)
Min-Datum _ 01.07.14 01.07.14 03.07.14 06.07.14 - - - - - 30.06.14
_ Min-Zeit 05:24 04:10 16:18 19:10 - - - - - 00:36
Minimum _ 7,7 C 6,7 C 39 % 1003,8 hPa - - - - - 0,0 km/h (0 Bft)
Max-Datum _ 04.07.14 04.07.14 06.07.14 03.07.14 06.07.14 30.06.14 30.06.14 06.07.14 01.07.14 06.07.14
_ Max-Zeit 14:20 12:28 00:22 00:20 15:18 06:08 10:30 12:18 13:14 19:38
Maximum _ 31,3 C 34,4 C 98 % 1022,9 hPa 7,0 l/m 0,03 h 0,03 h 7,2 UV-I 1182 W/m 52,3 km/h
S-SO (7 Bft)
Durchschnitt _ 18,5 C 17,4 C 77 % 1014,5 hPa #14,4 l/m #63:58 h #10:08 h 2,2 UV-I 355 W/m 10,0 km/h (2 Bft)
© 2014 W. Hausmann